Time;durP1;ratioP1;P1;durP2;ratioP2;P2;SDS_P1;SDS_P2;PMS_P1;PMS_P2;Temp;Humidity;BMP_temperature;BMP_pressure;BME280_temperature;BME280_humidity;BME280_pressure;Samples;Min_cycle;Max_cycle;Signal;HPM_P1;HPM_P2
2023/03/06 10:11:41;;;;;;;13.23;12.27;;;7.60;99.30;;;;;;5128467;27;20612;-77
2023/03/06 10:14:17;;;;;;;14.93;13.90;;;8.30;96.60;;;;;;5128717;27;20443;-75
2023/03/06 10:16:44;;;;;;;15.13;13.83;;;8.40;96.10;;;;;;5129187;27;20856;-76
2023/03/06 10:19:14;;;;;;;15.40;14.20;;;8.50;95.90;;;;;;5128596;27;20541;-76
2023/03/06 10:21:52;;;;;;;14.37;13.17;;;8.50;96.20;;;;;;5128287;27;20452;-76
2023/03/06 10:24:38;;;;;;;14.50;13.50;;;8.60;95.60;;;;;;5128374;27;20501;-76
2023/03/06 10:27:15;;;;;;;14.50;13.30;;;8.70;95.20;;;;;;5128293;27;20448;-76
2023/03/06 10:29:52;;;;;;;14.70;13.50;;;8.90;95.00;;;;;;5128419;27;20513;-76
2023/03/06 10:32:27;;;;;;;14.73;13.73;;;9.10;94.50;;;;;;5128318;27;20455;-76
2023/03/06 10:34:57;;;;;;;14.30;13.20;;;9.10;94.10;;;;;;5128305;27;20448;-76
2023/03/06 10:37:24;;;;;;;14.20;13.20;;;9.00;94.30;;;;;;5128089;28;20817;-76
2023/03/06 10:39:57;;;;;;;14.57;13.57;;;9.10;95.00;;;;;;5127913;27;20713;-76
2023/03/06 10:42:25;;;;;;;14.83;13.80;;;9.00;94.40;;;;;;5128155;27;20943;-76
2023/03/06 10:45:08;;;;;;;13.60;12.80;;;9.20;94.00;;;;;;5127963;27;20492;-76
2023/03/06 10:47:36;;;;;;;15.03;13.83;;;9.10;93.30;;;;;;5128310;27;20556;-76
2023/03/06 10:50:07;;;;;;;13.60;12.50;;;9.20;93.20;;;;;;5128110;27;20502;-76
2023/03/06 10:52:34;;;;;;;13.20;12.20;;;8.60;93.20;;;;;;5127792;27;20456;-76
2023/03/06 10:55:25;;;;;;;13.50;12.40;;;8.60;94.20;;;;;;5127717;27;20449;-74
2023/03/06 10:57:53;;;;;;;14.33;13.23;;;8.20;94.50;;;;;;5127789;27;20728;-76
2023/03/06 11:00:27;;;;;;;13.13;12.30;;;8.30;94.90;;;;;;5127527;28;20488;-77
2023/03/06 11:03:19;;;;;;;14.07;13.07;;;8.40;94.60;;;;;;5127859;27;20860;-76
2023/03/06 11:06:00;;;;;;;13.17;12.37;;;8.40;94.00;;;;;;5125189;27;20518;-77
2023/03/06 11:08:28;;;;;;;13.50;12.50;;;8.50;94.40;;;;;;5127493;27;20475;-75
2023/03/06 11:10:57;;;;;;;13.00;12.10;;;8.30;94.30;;;;;;5122973;27;20564;-76
2023/03/06 11:13:26;;;;;;;15.20;13.87;;;8.60;94.20;;;;;;5113941;28;20460;-76
2023/03/06 11:16:06;;;;;;;14.37;13.27;;;8.70;94.30;;;;;;5114148;28;21029;-76
2023/03/06 11:18:39;;;;;;;12.97;12.07;;;8.70;94.00;;;;;;5113813;28;20452;-76
2023/03/06 11:21:27;;;;;;;12.67;11.80;;;9.00;93.60;;;;;;5113684;28;20484;-76
2023/03/06 11:23:55;;;;;;;13.73;12.67;;;9.20;93.30;;;;;;5113809;28;20490;-75
2023/03/06 11:26:32;;;;;;;13.93;12.63;;;9.00;92.60;;;;;;5113931;28;20445;-76
2023/03/06 11:29:17;;;;;;;14.47;13.37;;;9.00;92.80;;;;;;5113875;28;20502;-76
2023/03/06 11:31:49;;;;;;;12.00;11.20;;;9.10;93.00;;;;;;5113712;28;20446;-76
2023/03/06 11:34:20;;;;;;;14.30;13.30;;;9.40;92.40;;;;;;5113791;28;20776;-76
2023/03/06 11:36:53;;;;;;;14.07;13.00;;;9.40;91.70;;;;;;5113462;28;20540;-77
2023/03/06 11:39:26;;;;;;;13.07;12.20;;;9.60;92.10;;;;;;5113213;28;20795;-76
2023/03/06 11:42:01;;;;;;;14.53;13.40;;;9.90;91.70;;;;;;5113238;28;20457;-77
2023/03/06 11:44:41;;;;;;;13.23;12.23;;;10.20;90.10;;;;;;5113819;28;20456;-77
2023/03/06 11:47:14;;;;;;;14.00;13.00;;;10.40;89.70;;;;;;5113233;28;20441;-76
2023/03/06 11:49:45;;;;;;;14.00;12.90;;;10.10;87.10;;;;;;5113336;28;20441;-76
2023/03/06 11:52:18;;;;;;;14.50;13.50;;;10.10;88.50;;;;;;5113251;28;20457;-76
2023/03/06 11:54:48;;;;;;;15.00;14.00;;;10.30;87.50;;;;;;5113750;28;20453;-75
2023/03/06 11:57:19;;;;;;;14.27;13.20;;;10.40;87.10;;;;;;5113448;28;20517;-75
2023/03/06 11:59:59;;;;;;;14.20;13.27;;;10.50;86.80;;;;;;5113383;28;20477;-75
2023/03/06 12:02:43;;;;;;;13.00;12.20;;;10.30;86.00;;;;;;5113361;28;20455;-76
2023/03/06 12:05:28;;;;;;;13.43;12.43;;;10.30;85.80;;;;;;5112897;28;20940;-76
2023/03/06 12:08:01;;;;;;;13.50;12.40;;;10.20;85.80;;;;;;5113137;28;20470;-76
2023/03/06 12:10:35;;;;;;;14.53;13.43;;;10.40;86.30;;;;;;5113016;28;21019;-76
2023/03/06 12:13:24;;;;;;;14.00;13.10;;;10.60;85.50;;;;;;5113108;28;20521;-76
2023/03/06 12:16:09;;;;;;;15.00;13.90;;;10.40;85.40;;;;;;5112953;28;20752;-77
2023/03/06 12:18:48;;;;;;;14.60;13.13;;;10.60;84.00;;;;;;5112836;28;20445;-74
2023/03/06 12:21:22;;;;;;;14.57;13.57;;;11.10;81.70;;;;;;5112912;28;20489;-77
2023/03/06 12:23:58;;;;;;;13.20;12.20;;;11.30;81.00;;;;;;5111918;28;20807;-74
2023/03/06 12:26:39;;;;;;;14.80;13.80;;;11.20;81.40;;;;;;5112894;28;20500;-75
2023/03/06 12:29:15;;;;;;;14.07;13.10;;;11.20;80.40;;;;;;5112607;28;20441;-75
2023/03/06 12:31:55;;;;;;;13.70;12.80;;;10.70;80.50;;;;;;5112846;28;20445;-74
2023/03/06 12:34:46;;;;;;;14.57;13.63;;;10.40;81.80;;;;;;5112526;28;20494;-77
2023/03/06 12:37:21;;;;;;;13.97;12.97;;;10.70;81.60;;;;;;5112623;28;20449;-77
2023/03/06 12:39:56;;;;;;;16.43;12.87;;;10.80;80.60;;;;;;5112845;28;20510;-77
2023/03/06 12:42:43;;;;;;;14.37;13.17;;;10.30;80.50;;;;;;5113215;28;20455;-76
2023/03/06 12:45:29;;;;;;;15.20;13.93;;;10.20;82.00;;;;;;5113021;28;21001;-77
2023/03/06 12:47:58;;;;;;;13.87;12.83;;;10.30;81.80;;;;;;5113344;28;20445;-77
2023/03/06 12:50:27;;;;;;;13.47;12.47;;;10.10;82.40;;;;;;5113349;28;20499;-76
2023/03/06 12:52:55;;;;;;;13.23;12.33;;;9.80;82.80;;;;;;5112096;28;20453;-77
2023/03/06 12:55:23;;;;;;;13.90;13.00;;;9.80;84.00;;;;;;5111784;28;20759;-77
2023/03/06 12:57:51;;;;;;;14.43;13.13;;;9.70;83.50;;;;;;5111805;28;20453;-75
2023/03/06 13:01:04;;;;;;;13.23;12.33;;;9.70;84.10;;;;;;5111748;28;20503;-75
2023/03/06 13:03:47;;;;;;;13.10;12.30;;;9.80;82.90;;;;;;5111923;28;20456;-75
2023/03/06 13:06:31;;;;;;;13.20;12.20;;;9.90;84.20;;;;;;5111765;28;20449;-76
2023/03/06 13:09:14;;;;;;;14.03;12.80;;;10.10;82.20;;;;;;5111602;28;20469;-77
2023/03/06 13:12:22;;;;;;;13.40;12.40;;;10.10;81.30;;;;;;5111737;28;20815;-75
2023/03/06 13:14:54;;;;;;;13.03;12.13;;;9.90;83.60;;;;;;5111510;28;20453;-75
2023/03/06 13:17:27;;;;;;;13.17;12.07;;;9.90;83.30;;;;;;5111459;28;20553;-76
2023/03/06 13:20:26;;;;;;;13.90;12.80;;;9.80;84.10;;;;;;5111388;28;20468;-76
2023/03/06 13:22:55;;;;;;;13.47;12.10;;;9.70;84.50;;;;;;5111557;28;20821;-76
2023/03/06 13:25:35;;;;;;;12.93;12.00;;;9.80;84.80;;;;;;5111370;28;20631;-76
2023/03/06 13:28:03;;;;;;;13.20;12.20;;;9.80;83.90;;;;;;5111505;28;20440;-77
2023/03/06 13:30:44;;;;;;;13.13;12.23;;;9.60;84.50;;;;;;5111380;28;20445;-76
2023/03/06 13:33:48;;;;;;;14.20;13.00;;;9.50;85.30;;;;;;5110984;28;20532;-75
2023/03/06 13:36:27;;;;;;;12.17;11.33;;;9.50;85.50;;;;;;5111512;28;20441;-76
2023/03/06 13:39:04;;;;;;;11.97;11.07;;;9.50;85.10;;;;;;5110925;28;20456;-76
2023/03/06 13:41:42;;;;;;;11.90;11.00;;;9.40;85.20;;;;;;5111053;28;20575;-75
2023/03/06 13:44:49;;;;;;;12.73;11.93;;;9.70;84.80;;;;;;5110832;28;20441;-75
2023/03/06 13:47:40;;;;;;;13.60;12.63;;;9.70;84.10;;;;;;5110867;28;20517;-75
2023/03/06 13:50:43;;;;;;;13.23;12.23;;;9.70;83.60;;;;;;5110773;28;20445;-76
2023/03/06 13:53:52;;;;;;;12.67;11.70;;;9.70;84.00;;;;;;5027822;28;20437;-76
2023/03/06 13:56:46;;;;;;;13.30;12.23;;;9.80;83.80;;;;;;5110991;28;20445;-75
2023/03/06 13:59:32;;;;;;;12.17;11.33;;;9.70;83.50;;;;;;5110999;28;20453;-76
2023/03/06 14:02:09;;;;;;;12.60;11.50;;;9.40;84.60;;;;;;5110843;28;20507;-76
2023/03/06 14:04:53;;;;;;;13.03;12.07;;;9.20;84.60;;;;;;5110649;28;20445;-75
2023/03/06 14:07:23;;;;;;;11.87;11.07;;;8.90;84.60;;;;;;5110827;28;20870;-75
2023/03/06 14:10:09;;;;;;;11.80;10.90;;;8.90;84.50;;;;;;5110548;28;20477;-75
2023/03/06 14:12:41;;;;;;;11.30;10.60;;;8.90;84.60;;;;;;5107601;28;20465;-75
2023/03/06 14:15:17;;;;;;;12.57;11.77;;;9.00;85.40;;;;;;5110502;28;20444;-76
2023/03/06 14:17:56;;;;;;;14.20;13.10;;;9.10;84.90;;;;;;5110994;28;20453;-76
2023/03/06 14:20:32;;;;;;;11.57;10.87;;;9.30;83.50;;;;;;5110570;28;20572;-76
2023/03/06 14:23:15;;;;;;;12.23;11.33;;;9.40;83.30;;;;;;5110764;28;20452;-76
2023/03/06 14:25:44;;;;;;;11.47;10.67;;;9.30;83.10;;;;;;5110751;28;20452;-76
2023/03/06 14:28:24;;;;;;;11.60;10.70;;;9.30;82.50;;;;;;5110617;28;20453;-76
2023/03/06 14:30:52;;;;;;;12.87;11.87;;;9.00;82.80;;;;;;5110247;28;20441;-77
2023/03/06 14:33:31;;;;;;;12.77;11.90;;;9.10;83.30;;;;;;5110124;28;20445;-77
2023/03/06 14:36:01;;;;;;;11.50;10.60;;;8.90;83.60;;;;;;5110538;28;20452;-76
2023/03/06 14:38:31;;;;;;;12.73;11.67;;;9.00;84.60;;;;;;5110244;28;20456;-76
2023/03/06 14:40:58;;;;;;;12.23;11.33;;;9.00;83.60;;;;;;5110528;28;20488;-76
2023/03/06 14:43:27;;;;;;;13.00;12.10;;;8.90;83.00;;;;;;5110264;28;20449;-77
2023/03/06 14:45:56;;;;;;;12.30;11.30;;;8.70;83.80;;;;;;5110902;28;20452;-76
2023/03/06 14:48:25;;;;;;;12.33;11.30;;;8.80;84.60;;;;;;5114040;28;21139;-77
2023/03/06 14:50:53;;;;;;;13.10;12.10;;;8.70;83.80;;;;;;5114188;28;20445;-76
2023/03/06 14:53:24;;;;;;;13.13;12.20;;;8.80;84.10;;;;;;5114046;28;20453;-73
2023/03/06 14:55:53;;;;;;;13.33;12.30;;;8.70;83.80;;;;;;5114155;28;20615;-76
2023/03/06 14:58:25;;;;;;;12.30;11.37;;;8.70;83.60;;;;;;5113938;28;20457;-76
2023/03/06 15:00:55;;;;;;;13.43;12.33;;;8.50;83.50;;;;;;5113912;28;20477;-76
2023/03/06 15:03:25;;;;;;;13.73;12.10;;;8.40;83.00;;;;;;5114264;28;20465;-74
2023/03/06 15:05:53;;;;;;;14.60;13.33;;;8.40;84.10;;;;;;5113702;28;20734;-77
2023/03/06 15:08:24;;;;;;;14.60;13.40;;;8.30;83.80;;;;;;5113522;28;20984;-76
2023/03/06 15:10:59;;;;;;;12.27;11.27;;;8.20;84.40;;;;;;5113573;28;20852;-75
2023/03/06 15:13:28;;;;;;;12.97;11.90;;;8.10;84.60;;;;;;5113810;28;20459;-75
2023/03/06 15:15:58;;;;;;;13.00;12.00;;;8.20;85.30;;;;;;5113549;28;20449;-75
2023/03/06 15:18:28;;;;;;;12.67;11.67;;;8.30;84.50;;;;;;5113833;28;20564;-75
2023/03/06 15:21:06;;;;;;;11.93;10.83;;;8.20;84.90;;;;;;5113513;28;20492;-75
2023/03/06 15:23:38;;;;;;;11.80;10.97;;;8.20;85.10;;;;;;5113335;28;20873;-77
2023/03/06 15:26:24;;;;;;;11.13;10.33;;;8.30;85.50;;;;;;5113377;28;20534;-75
2023/03/06 15:29:01;;;;;;;12.23;11.33;;;8.40;85.00;;;;;;5113412;28;20449;-77
2023/03/06 15:31:30;;;;;;;13.40;12.40;;;8.20;85.10;;;;;;5113512;28;20449;-75
2023/03/06 15:34:17;;;;;;;12.80;11.70;;;8.00;85.30;;;;;;5113508;28;20453;-75
2023/03/06 15:36:46;;;;;;;14.20;13.10;;;7.90;86.20;;;;;;5113550;28;20861;-75
2023/03/06 15:39:34;;;;;;;12.90;11.90;;;7.80;86.10;;;;;;5113662;28;20481;-75
2023/03/06 15:42:02;;;;;;;13.87;12.87;;;7.70;87.70;;;;;;5113558;28;20992;-75
2023/03/06 15:44:31;;;;;;;13.67;12.60;;;7.60;88.20;;;;;;5113647;28;20793;-75
2023/03/06 15:46:59;;;;;;;13.07;11.83;;;7.60;89.10;;;;;;5113676;28;20877;-77
2023/03/06 15:49:26;;;;;;;14.00;12.80;;;7.40;89.60;;;;;;5113470;28;20457;-76
2023/03/06 15:51:53;;;;;;;13.73;12.63;;;7.30;90.10;;;;;;5113074;28;20533;-76
2023/03/06 15:54:21;;;;;;;13.87;12.77;;;7.40;90.30;;;;;;5113056;28;20498;-76
2023/03/06 15:56:50;;;;;;;12.40;11.40;;;7.20;90.70;;;;;;5112616;28;20887;-76
2023/03/06 15:59:21;;;;;;;13.70;12.50;;;7.20;91.10;;;;;;5113045;28;20826;-76
2023/03/06 16:01:49;;;;;;;12.87;11.87;;;7.20;91.90;;;;;;5112842;28;20481;-77
2023/03/06 16:04:18;;;;;;;13.60;12.53;;;7.20;92.20;;;;;;5113101;28;20498;-75
2023/03/06 16:06:45;;;;;;;15.00;13.70;;;7.10;92.30;;;;;;5112665;28;20588;-75
2023/03/06 16:09:13;;;;;;;16.63;15.33;;;7.10;93.20;;;;;;5112439;28;21053;-76
2023/03/06 16:11:43;;;;;;;13.20;12.10;;;7.10;93.20;;;;;;5112734;28;20453;-76
2023/03/06 16:14:18;;;;;;;13.87;12.77;;;7.10;93.60;;;;;;5112673;28;20544;-76
2023/03/06 16:16:45;;;;;;;12.87;11.87;;;7.10;94.20;;;;;;5112844;28;20832;-76
2023/03/06 16:19:15;;;;;;;13.73;12.53;;;6.90;95.40;;;;;;5112767;28;20909;-75
2023/03/06 16:21:44;;;;;;;13.27;12.13;;;6.70;97.10;;;;;;5112338;28;20574;-77
2023/03/06 16:24:10;;;;;;;15.07;13.87;;;6.60;98.30;;;;;;5112484;28;20524;-77
2023/03/06 16:26:38;;;;;;;14.40;13.20;;;6.60;99.70;;;;;;5112313;28;20481;-76
2023/03/06 16:29:05;;;;;;;13.60;12.60;;;6.60;99.90;;;;;;5112242;28;20503;-75
2023/03/06 16:31:31;;;;;;;13.57;12.57;;;6.50;99.90;;;;;;5111851;28;20441;-76
2023/03/06 16:33:58;;;;;;;14.47;13.37;;;6.50;99.90;;;;;;5111725;28;20445;-75
2023/03/06 16:36:27;;;;;;;13.53;12.43;;;6.50;99.90;;;;;;5111730;28;20449;-76
2023/03/06 16:38:55;;;;;;;13.77;12.57;;;6.50;99.90;;;;;;5111465;28;20752;-76
2023/03/06 16:41:22;;;;;;;13.13;12.17;;;6.50;99.90;;;;;;5111322;28;20823;-76
2023/03/06 16:43:48;;;;;;;14.20;13.00;;;6.50;99.90;;;;;;5111422;28;20510;-76
2023/03/06 16:46:17;;;;;;;14.63;13.60;;;6.60;99.90;;;;;;5111566;28;20453;-75
2023/03/06 16:48:44;;;;;;;13.33;12.27;;;6.60;99.90;;;;;;5111383;28;20457;-76
2023/03/06 16:51:14;;;;;;;15.13;13.93;;;6.50;99.90;;;;;;5111276;28;20937;-76
2023/03/06 16:53:41;;;;;;;14.80;13.50;;;6.60;99.90;;;;;;5111157;28;20446;-76
2023/03/06 16:56:12;;;;;;;14.67;13.57;;;6.50;99.90;;;;;;5111438;28;20453;-76
2023/03/06 16:58:38;;;;;;;15.33;14.13;;;6.50;99.90;;;;;;5110811;28;20536;-76
2023/03/06 17:01:05;;;;;;;15.77;14.27;;;6.40;99.90;;;;;;5110906;28;20488;-75
2023/03/06 17:03:32;;;;;;;14.57;13.13;;;6.40;99.90;;;;;;5111383;28;20799;-75
2023/03/06 17:05:59;;;;;;;16.00;14.60;;;6.40;99.90;;;;;;5111169;28;20933;-75
2023/03/06 17:08:25;;;;;;;15.30;14.10;;;6.40;99.90;;;;;;5110503;28;20473;-77
2023/03/06 17:10:52;;;;;;;14.50;13.40;;;6.30;99.90;;;;;;5110665;28;20473;-75
2023/03/06 17:13:20;;;;;;;14.70;13.50;;;6.20;99.90;;;;;;5111143;28;20445;-75
2023/03/06 17:15:55;;;;;;;16.37;14.97;;;6.20;99.90;;;;;;5111204;28;20456;-75
2023/03/06 17:18:22;;;;;;;15.37;13.90;;;6.20;99.90;;;;;;5110861;28;20543;-75
2023/03/06 17:20:50;;;;;;;14.40;13.10;;;6.20;99.90;;;;;;5110811;28;20450;-76
2023/03/06 17:23:16;;;;;;;16.00;14.70;;;6.20;99.90;;;;;;5110798;28;20799;-76
2023/03/06 17:25:43;;;;;;;15.00;13.80;;;6.10;99.90;;;;;;5110802;28;20438;-77
2023/03/06 17:28:10;;;;;;;16.80;15.50;;;6.00;99.90;;;;;;5110600;28;20520;-75
2023/03/06 17:30:38;;;;;;;15.93;14.53;;;5.90;99.90;;;;;;5110665;28;20477;-77
2023/03/06 17:33:05;;;;;;;15.30;14.20;;;5.90;99.90;;;;;;5110584;28;20434;-77
2023/03/06 17:35:34;;;;;;;17.23;15.70;;;5.80;99.90;;;;;;5111085;28;20803;-79
2023/03/06 17:38:01;;;;;;;17.17;15.77;;;5.60;99.90;;;;;;5111224;28;20445;-80
2023/03/06 17:40:27;;;;;;;17.80;16.40;;;5.60;99.90;;;;;;5111083;28;20453;-78
2023/03/06 17:42:54;;;;;;;16.30;14.73;;;5.50;99.90;;;;;;5110893;28;21038;-79
2023/03/06 17:45:21;;;;;;;17.20;15.70;;;5.50;99.90;;;;;;5110693;28;21025;-80
2023/03/06 17:47:52;;;;;;;19.47;18.03;;;5.50;99.90;;;;;;5110833;28;20997;-79
2023/03/06 17:50:19;;;;;;;16.67;15.37;;;5.50;99.90;;;;;;5110617;28;20459;-79
2023/03/06 17:52:46;;;;;;;18.30;16.80;;;5.40;99.90;;;;;;5110626;28;20545;-79
2023/03/06 17:55:13;;;;;;;18.27;16.60;;;5.40;99.90;;;;;;5110686;28;20445;-79
2023/03/06 17:57:39;;;;;;;17.80;16.37;;;5.40;99.90;;;;;;5110678;28;20586;-78
